createdAt,value
2022-11-05T00:00:01.861Z,84.34
2022-11-05T00:02:48.497Z,84.09
2022-11-05T00:05:33.795Z,83.43
2022-11-05T00:08:21.393Z,83.04
2022-11-05T00:10:49.576Z,83.48
2022-11-05T00:13:37.738Z,83.91
2022-11-05T00:16:23.545Z,83.16
2022-11-05T00:22:04.180Z,84.03
2022-11-05T00:24:49.507Z,84.30
2022-11-05T00:27:19.860Z,84.74
2022-11-05T00:29:47.751Z,84.11
2022-11-05T00:32:15.624Z,84.70
2022-11-05T00:34:43.698Z,85.03
2022-11-05T00:37:12.992Z,85.43
2022-11-05T00:39:40.891Z,83.67
2022-11-05T00:42:26.362Z,84.10
2022-11-05T00:45:03.383Z,84.79
2022-11-05T00:47:49.690Z,84.97
2022-11-05T00:50:18.346Z,84.16
2022-11-05T00:52:57.103Z,85.17
2022-11-05T00:55:26.372Z,84.62
2022-11-05T00:57:54.251Z,84.02
2022-11-05T01:00:23.335Z,83.79
2022-11-05T01:02:51.339Z,84.16
2022-11-05T01:05:19.619Z,84.54
2022-11-05T01:07:48.907Z,84.29
2022-11-05T01:10:16.987Z,83.49
2022-11-05T01:12:44.848Z,83.50
2022-11-05T01:15:12.777Z,82.71
2022-11-05T01:17:40.667Z,82.37
2022-11-05T01:20:09.355Z,82.06
2022-11-05T01:22:37.245Z,81.80
2022-11-05T01:25:08.505Z,83.85
2022-11-05T01:27:37.458Z,84.67
2022-11-05T01:30:07.168Z,85.08
2022-11-05T01:32:36.003Z,84.42
2022-11-05T01:35:04.237Z,84.98
2022-11-05T01:37:32.115Z,85.18
2022-11-05T01:40:00.016Z,86.27
2022-11-05T01:42:29.776Z,87.08
2022-11-05T01:45:01.463Z,86.61
2022-11-05T01:47:51.422Z,86.84
2022-11-05T01:50:29.232Z,87.17
2022-11-05T01:53:02.025Z,86.00
2022-11-05T01:55:34.795Z,86.05
2022-11-05T01:58:07.292Z,86.39
2022-11-05T02:00:35.877Z,86.02
2022-11-05T02:03:03.984Z,85.58
2022-11-05T02:05:34.131Z,86.25
2022-11-05T02:08:02.278Z,87.00
2022-11-05T02:10:30.338Z,86.17
2022-11-05T02:12:58.278Z,85.96
2022-11-05T02:15:38.588Z,86.71
2022-11-05T02:18:21.347Z,86.76
2022-11-05T02:21:00.908Z,87.37
2022-11-05T02:24:08.797Z,86.41
2022-11-05T02:26:58.649Z,87.09
2022-11-05T02:30:10.788Z,87.47
2022-11-05T02:33:08.961Z,86.01
2022-11-05T02:35:54.181Z,85.23
2022-11-05T02:38:35.989Z,84.86
2022-11-05T02:41:10.110Z,84.87
2022-11-05T02:43:48.675Z,86.38
2022-11-05T02:46:27.646Z,87.01
2022-11-05T02:49:05.851Z,87.42
2022-11-05T02:51:40.188Z,86.93
2022-11-05T02:54:16.404Z,86.73
2022-11-05T02:56:47.898Z,87.83
2022-11-05T02:59:16.545Z,87.02
2022-11-05T03:01:47.438Z,86.81
2022-11-05T03:04:20.507Z,88.32
2022-11-05T03:07:23.085Z,87.48
2022-11-05T03:10:26.218Z,87.10
2022-11-05T03:13:05.803Z,87.41
2022-11-05T03:15:48.839Z,87.68
2022-11-05T03:18:26.534Z,88.51
2022-11-05T03:21:03.289Z,89.45
2022-11-05T03:23:38.565Z,90.06
2022-11-05T03:26:11.614Z,89.92
2022-11-05T03:28:45.185Z,89.97
2022-11-05T03:31:15.373Z,89.57
2022-11-05T03:33:46.069Z,88.16
2022-11-05T03:36:21.658Z,88.68
2022-11-05T03:38:52.580Z,89.45
2022-11-05T03:41:22.907Z,89.46
2022-11-05T03:43:53.118Z,89.08
2022-11-05T03:46:26.501Z,89.69
2022-11-05T03:48:58.306Z,89.08
2022-11-05T03:51:37.082Z,90.02
2022-11-05T03:54:06.572Z,89.06
2022-11-05T03:56:41.075Z,89.59
2022-11-05T03:59:11.262Z,90.88
2022-11-05T04:01:40.533Z,89.72
2022-11-05T04:04:09.670Z,88.82
2022-11-05T04:06:56.591Z,87.83
2022-11-05T04:09:42.125Z,88.08
2022-11-05T04:12:28.626Z,87.91
2022-11-05T04:14:57.211Z,89.04
2022-11-05T04:17:24.228Z,89.11
2022-11-05T04:20:09.624Z,89.50
2022-11-05T04:22:56.407Z,89.27
2022-11-05T04:25:24.507Z,89.66
2022-11-05T04:27:52.954Z,90.69
2022-11-05T04:30:20.677Z,90.36
2022-11-05T04:33:04.437Z,90.53
2022-11-05T04:35:34.127Z,89.28
2022-11-05T04:38:03.840Z,89.18
2022-11-05T04:40:31.959Z,90.77
2022-11-05T04:42:59.905Z,90.24
2022-11-05T04:45:29.880Z,90.56
2022-11-05T04:47:57.809Z,90.83
2022-11-05T04:50:25.854Z,90.93
2022-11-05T04:52:53.913Z,90.99
2022-11-05T04:55:23.319Z,90.09
2022-11-05T04:57:52.289Z,88.74
2022-11-05T05:00:21.689Z,88.56
2022-11-05T05:02:50.036Z,89.37
2022-11-05T05:05:18.856Z,89.41
2022-11-05T05:07:46.784Z,90.54
2022-11-05T05:10:15.210Z,90.59
2022-11-05T05:12:44.530Z,91.06
2022-11-05T05:15:13.821Z,90.68
2022-11-05T05:17:41.814Z,91.00
2022-11-05T05:20:27.387Z,89.05
2022-11-05T05:22:55.655Z,89.61
2022-11-05T05:25:23.841Z,89.13
2022-11-05T05:27:53.293Z,88.41
2022-11-05T05:30:21.158Z,87.82
2022-11-05T05:32:49.022Z,89.08
2022-11-05T05:35:17.524Z,89.30
2022-11-05T05:37:45.565Z,90.03
2022-11-05T05:40:13.798Z,90.00
2022-11-05T05:42:43.342Z,90.08
2022-11-05T05:45:13.647Z,90.63
2022-11-05T05:47:41.562Z,90.78
2022-11-05T05:50:09.682Z,90.48
2022-11-05T05:52:37.612Z,89.88
2022-11-05T05:55:06.130Z,90.00
2022-11-05T05:57:35.193Z,89.18
2022-11-05T06:00:03.067Z,88.79
2022-11-05T06:02:33.347Z,89.22
2022-11-05T06:05:01.507Z,88.76
2022-11-05T06:07:34.444Z,88.33
2022-11-05T06:10:06.466Z,87.04
2022-11-05T06:12:34.531Z,88.59
2022-11-05T06:15:02.546Z,87.60
2022-11-05T06:17:30.621Z,86.44
2022-11-05T06:19:59.891Z,86.42
2022-11-05T06:22:27.824Z,86.18
2022-11-05T06:24:55.682Z,87.07
2022-11-05T06:27:23.532Z,87.03
2022-11-05T06:29:51.499Z,87.49
2022-11-05T06:32:19.401Z,86.64
2022-11-05T06:34:47.358Z,86.71
2022-11-05T06:37:17.099Z,87.75
2022-11-05T06:39:45.018Z,87.65
2022-11-05T06:42:18.467Z,87.17
2022-11-05T06:44:47.249Z,87.38
2022-11-05T06:47:15.253Z,87.49
2022-11-05T06:49:43.170Z,87.21
2022-11-05T06:52:11.021Z,87.14
2022-11-05T06:54:40.811Z,86.15
2022-11-05T06:57:09.637Z,86.25
2022-11-05T06:59:37.737Z,85.27
2022-11-05T07:02:06.768Z,85.57
2022-11-05T07:04:34.933Z,84.61
2022-11-05T07:07:04.713Z,84.04
2022-11-05T07:09:32.595Z,84.16
2022-11-05T07:12:01.871Z,83.80
2022-11-05T07:14:29.749Z,83.17
2022-11-05T07:16:58.260Z,83.18
2022-11-05T07:19:26.148Z,83.21
2022-11-05T07:21:54.037Z,82.79
2022-11-05T07:24:21.925Z,81.60
2022-11-05T07:26:49.875Z,81.23
2022-11-05T07:29:19.297Z,81.17
2022-11-05T07:31:47.827Z,81.25
2022-11-05T07:34:15.896Z,81.06
2022-11-05T07:36:43.826Z,80.34
2022-11-05T07:39:11.730Z,80.13
2022-11-05T07:41:39.641Z,79.12
2022-11-05T07:44:07.687Z,78.86
2022-11-05T07:46:37.041Z,78.68
2022-11-05T07:49:05.163Z,78.02
2022-11-05T07:51:33.194Z,77.58
2022-11-05T07:54:01.258Z,76.75
2022-11-05T07:56:29.130Z,77.68
2022-11-05T07:58:57.113Z,76.61
2022-11-05T08:01:25.284Z,75.63
2022-11-05T08:03:54.895Z,74.71
2022-11-05T08:06:22.797Z,75.05
2022-11-05T08:08:50.658Z,74.26
2022-11-05T08:11:18.933Z,74.43
2022-11-05T08:13:46.852Z,74.10
2022-11-05T08:16:15.672Z,74.50
2022-11-05T08:18:44.661Z,75.42
2022-11-05T08:21:13.920Z,74.82
2022-11-05T08:23:42.972Z,74.48
2022-11-05T08:26:11.279Z,74.90
2022-11-05T08:28:39.247Z,75.37
2022-11-05T08:31:07.264Z,75.56
2022-11-05T08:33:35.212Z,74.72
2022-11-05T08:36:04.477Z,73.57
2022-11-05T08:38:33.793Z,72.56
2022-11-05T08:41:02.294Z,71.66
2022-11-05T08:43:30.164Z,70.96
2022-11-05T08:45:58.044Z,70.22
2022-11-05T08:48:26.006Z,70.70
2022-11-05T08:50:54.329Z,70.81
2022-11-05T08:53:22.212Z,69.75
2022-11-05T08:55:51.645Z,69.23
2022-11-05T08:58:20.868Z,69.92
2022-11-05T09:00:50.445Z,69.21
2022-11-05T09:03:19.203Z,69.58
2022-11-05T09:05:47.671Z,70.18
2022-11-05T09:08:18.374Z,69.96
2022-11-05T09:10:47.658Z,69.85
2022-11-05T09:13:19.681Z,69.29
2022-11-05T09:15:48.262Z,68.74
2022-11-05T09:18:17.203Z,68.28
2022-11-05T09:20:45.217Z,67.10
2022-11-05T09:23:15.815Z,67.33
2022-11-05T09:25:44.148Z,67.70
2022-11-05T09:28:16.778Z,67.40
2022-11-05T09:30:48.070Z,67.23
2022-11-05T09:33:18.848Z,65.91
2022-11-05T09:35:47.402Z,66.01
2022-11-05T09:38:18.772Z,64.80
2022-11-05T09:40:55.940Z,65.26
2022-11-05T09:43:31.679Z,64.99
2022-11-05T09:46:08.559Z,65.29
2022-11-05T09:48:39.174Z,65.88
2022-11-05T09:51:07.868Z,65.50
2022-11-05T09:53:40.630Z,65.56
2022-11-05T09:56:21.096Z,66.22
2022-11-05T09:58:53.048Z,66.13
2022-11-05T10:01:25.950Z,65.35
2022-11-05T10:04:01.372Z,65.39
2022-11-05T10:06:29.848Z,64.73
2022-11-05T10:09:05.038Z,65.33
2022-11-05T10:11:38.274Z,66.21
2022-11-05T10:14:14.971Z,65.77
2022-11-05T10:16:50.131Z,65.58
2022-11-05T10:19:23.984Z,66.24
2022-11-05T10:22:05.982Z,65.19
2022-11-05T10:24:34.406Z,65.68
2022-11-05T10:27:02.974Z,64.88
2022-11-05T10:29:34.380Z,64.69
2022-11-05T10:32:07.325Z,63.83
2022-11-05T10:34:39.270Z,63.45
2022-11-05T10:37:07.458Z,63.23
2022-11-05T10:39:35.906Z,62.57
2022-11-05T10:42:45.118Z,62.62
2022-11-05T10:45:23.871Z,62.42
2022-11-05T10:48:07.901Z,63.30
2022-11-05T10:50:35.809Z,62.89
2022-11-05T10:53:10.746Z,63.21
2022-11-05T10:55:42.642Z,63.47
2022-11-05T10:58:12.782Z,63.06
2022-11-05T11:00:41.162Z,62.10
2022-11-05T11:03:33.892Z,62.13
2022-11-05T11:06:03.804Z,62.06
2022-11-05T11:08:36.088Z,62.43
2022-11-05T11:11:06.289Z,61.74
2022-11-05T11:13:51.235Z,62.31
2022-11-05T11:16:22.495Z,62.67
2022-11-05T11:18:56.666Z,61.67
2022-11-05T11:21:26.178Z,60.42
2022-11-05T11:23:59.060Z,60.90
2022-11-05T11:26:29.140Z,61.08
2022-11-05T11:29:00.395Z,60.51
2022-11-05T11:31:30.432Z,60.77
2022-11-05T11:34:03.602Z,60.33
2022-11-05T11:36:37.114Z,59.48
2022-11-05T11:39:07.869Z,59.49
2022-11-05T11:41:41.906Z,59.79
2022-11-05T11:44:18.958Z,59.72
2022-11-05T11:46:49.869Z,59.31
2022-11-05T11:49:34.406Z,57.88
2022-11-05T11:52:05.905Z,57.96
2022-11-05T11:54:34.880Z,57.76
2022-11-05T11:57:03.454Z,57.27
2022-11-05T12:00:01.966Z,57.09
2022-11-05T12:02:46.162Z,57.69
2022-11-05T12:05:32.024Z,57.30
2022-11-05T12:08:09.977Z,57.30
2022-11-05T12:10:49.973Z,57.45
2022-11-05T12:13:45.754Z,57.85
2022-11-05T12:16:23.341Z,56.71
2022-11-05T12:19:02.555Z,56.84
2022-11-05T12:21:52.656Z,56.78
2022-11-05T12:24:41.876Z,56.67
2022-11-05T12:27:23.222Z,55.78
2022-11-05T12:29:58.519Z,56.47
2022-11-05T12:32:48.332Z,57.33
2022-11-05T12:35:44.176Z,56.70
2022-11-05T12:38:28.536Z,57.65
2022-11-05T12:41:10.741Z,57.86
2022-11-05T12:43:51.227Z,58.26
2022-11-05T12:46:27.437Z,57.39
2022-11-05T12:49:22.368Z,56.94
2022-11-05T12:52:06.837Z,56.52
2022-11-05T12:54:54.186Z,56.53
2022-11-05T12:57:24.307Z,56.27
2022-11-05T12:59:56.690Z,56.18
2022-11-05T13:02:31.577Z,55.55
2022-11-05T13:05:05.506Z,55.90
2022-11-05T13:07:36.265Z,55.68
2022-11-05T13:10:11.501Z,56.67
2022-11-05T13:12:42.298Z,56.34
2022-11-05T13:15:25.763Z,55.80
2022-11-05T13:17:56.185Z,55.49
2022-11-05T13:20:27.559Z,56.62
2022-11-05T13:23:01.105Z,56.98
2022-11-05T13:25:33.241Z,56.30
2022-11-05T13:28:08.040Z,56.67
2022-11-05T13:30:38.974Z,56.61
2022-11-05T13:33:13.653Z,57.72
2022-11-05T13:35:45.487Z,57.56
2022-11-05T13:38:39.186Z,58.07
2022-11-05T13:41:22.571Z,58.07
2022-11-05T13:44:06.456Z,58.37
2022-11-05T13:46:53.208Z,57.95
2022-11-05T13:49:47.446Z,57.91
2022-11-05T13:52:47.251Z,59.14
2022-11-05T13:55:44.126Z,58.89
2022-11-05T13:58:52.896Z,58.65
2022-11-05T14:01:40.197Z,58.91
2022-11-05T14:04:15.254Z,59.29
2022-11-05T14:06:44.035Z,60.44
2022-11-05T14:09:17.909Z,59.94
2022-11-05T14:11:52.441Z,60.31
2022-11-05T14:14:24.547Z,60.89
2022-11-05T14:16:54.328Z,59.96
2022-11-05T14:19:33.338Z,60.47
2022-11-05T14:22:01.414Z,61.80
2022-11-05T14:24:43.000Z,61.55
2022-11-05T14:27:53.709Z,61.37
2022-11-05T14:30:46.771Z,61.84
2022-11-05T14:33:31.493Z,62.14
2022-11-05T14:36:36.853Z,62.02
2022-11-05T14:39:24.853Z,62.69
2022-11-05T14:42:02.141Z,62.39
2022-11-05T14:44:31.932Z,62.31
2022-11-05T14:47:04.255Z,62.74
2022-11-05T14:49:34.986Z,63.14
2022-11-05T14:52:08.576Z,63.46
2022-11-05T14:54:42.743Z,63.05
2022-11-05T14:57:15.049Z,63.15
2022-11-05T15:00:01.033Z,63.19
2022-11-05T15:02:35.602Z,63.36
2022-11-05T15:05:38.096Z,63.53
2022-11-05T15:08:36.469Z,63.62
2022-11-05T15:11:12.720Z,63.68
2022-11-05T15:13:50.693Z,63.62
2022-11-05T15:16:24.689Z,64.04
2022-11-05T15:18:56.513Z,64.17
2022-11-05T15:21:26.037Z,65.12
2022-11-05T15:23:57.451Z,65.19
2022-11-05T15:26:31.249Z,65.26
2022-11-05T15:28:59.356Z,65.25
2022-11-05T15:31:34.381Z,65.62
2022-11-05T15:34:22.999Z,65.87
2022-11-05T15:36:53.997Z,66.29
2022-11-05T15:39:31.079Z,66.54
2022-11-05T15:42:00.526Z,66.40
2022-11-05T15:44:30.344Z,66.41
2022-11-05T15:47:23.190Z,66.80
2022-11-05T15:49:55.697Z,66.69
2022-11-05T15:52:25.565Z,66.73
2022-11-05T15:55:18.348Z,66.88
2022-11-05T15:57:50.868Z,67.18
2022-11-05T16:00:21.637Z,67.39
2022-11-05T16:02:56.191Z,68.23
2022-11-05T16:05:28.240Z,67.53
2022-11-05T16:07:59.149Z,67.79
2022-11-05T16:10:30.485Z,68.32
2022-11-05T16:12:58.601Z,68.21
2022-11-05T16:15:32.799Z,67.81
2022-11-05T16:18:01.528Z,67.70
2022-11-05T16:20:33.186Z,68.35
2022-11-05T16:23:03.276Z,68.04
2022-11-05T16:25:37.307Z,68.15
2022-11-05T16:28:07.310Z,68.06
2022-11-05T16:30:35.292Z,67.83
2022-11-05T16:33:08.493Z,68.04
2022-11-05T16:35:41.578Z,67.94
2022-11-05T16:38:15.661Z,68.19
2022-11-05T16:40:44.023Z,68.14
2022-11-05T16:43:19.636Z,68.35
2022-11-05T16:45:47.778Z,68.39
2022-11-05T16:48:17.129Z,68.08
2022-11-05T16:50:47.120Z,67.77
2022-11-05T16:53:18.164Z,67.74
2022-11-05T16:55:49.041Z,68.10
2022-11-05T16:58:21.144Z,68.36
2022-11-05T17:00:50.093Z,68.66
2022-11-05T17:03:18.047Z,69.81
2022-11-05T17:05:47.675Z,70.77
2022-11-05T17:08:16.917Z,71.81
2022-11-05T17:10:45.151Z,72.64
2022-11-05T17:13:16.053Z,72.97
2022-11-05T17:15:45.195Z,73.53
2022-11-05T17:18:18.207Z,73.35
2022-11-05T17:20:49.766Z,73.41
2022-11-05T17:23:19.383Z,74.42
2022-11-05T17:25:49.183Z,74.48
2022-11-05T17:28:18.198Z,74.01
2022-11-05T17:30:52.211Z,73.53
2022-11-05T17:33:22.742Z,74.11
2022-11-05T17:35:54.154Z,73.74
2022-11-05T17:38:23.745Z,73.33
2022-11-05T17:40:54.818Z,73.46
2022-11-05T17:43:22.717Z,73.09
2022-11-05T17:45:52.090Z,73.12
2022-11-05T17:48:20.842Z,73.61
2022-11-05T17:50:50.377Z,74.67
2022-11-05T17:53:20.583Z,74.29
2022-11-05T17:55:48.741Z,74.52
2022-11-05T17:58:17.450Z,73.66
2022-11-05T18:00:47.314Z,72.78
2022-11-05T18:03:16.026Z,72.17
2022-11-05T18:05:44.328Z,72.51
2022-11-05T18:08:12.716Z,71.75
2022-11-05T18:10:42.335Z,72.31
2022-11-05T18:13:11.375Z,73.28
2022-11-05T18:15:41.226Z,72.44
2022-11-05T18:18:10.033Z,72.70
2022-11-05T18:20:38.632Z,73.36
2022-11-05T18:23:06.528Z,72.46
2022-11-05T18:25:34.482Z,71.62
2022-11-05T18:28:03.900Z,71.40
2022-11-05T18:30:31.941Z,71.66
2022-11-05T18:32:59.858Z,73.13
2022-11-05T18:35:27.794Z,72.54
2022-11-05T18:37:55.664Z,72.85
2022-11-05T18:40:23.876Z,73.02
2022-11-05T18:42:51.777Z,73.62
2022-11-05T18:45:25.530Z,75.50
2022-11-05T18:47:56.433Z,73.96
2022-11-05T18:50:24.414Z,73.31
2022-11-05T18:52:52.302Z,74.75
2022-11-05T18:55:20.448Z,73.82
2022-11-05T18:57:48.444Z,73.60
2022-11-05T19:00:17.448Z,74.54
2022-11-05T19:02:46.933Z,74.27
2022-11-05T19:05:28.529Z,74.47
2022-11-05T19:07:56.814Z,74.87
2022-11-05T19:10:25.124Z,76.48
2022-11-05T19:12:53.179Z,74.94
2022-11-05T19:15:21.153Z,75.82
2022-11-05T19:17:50.415Z,77.24
2022-11-05T19:20:18.426Z,75.71
2022-11-05T19:22:46.330Z,76.16
2022-11-05T19:25:14.959Z,77.06
2022-11-05T19:27:43.688Z,76.07
2022-11-05T19:30:12.716Z,75.69
2022-11-05T19:32:40.597Z,75.86
2022-11-05T19:35:10.413Z,76.44
2022-11-05T19:37:38.334Z,76.81
2022-11-05T19:40:07.401Z,77.01
2022-11-05T19:42:35.282Z,78.75
2022-11-05T19:45:22.872Z,77.42
2022-11-05T19:47:51.129Z,79.21
2022-11-05T19:50:20.634Z,78.41
2022-11-05T19:52:48.519Z,79.66
2022-11-05T19:55:16.660Z,79.81
2022-11-05T19:57:45.014Z,78.82
2022-11-05T20:00:14.427Z,78.41
2022-11-05T20:02:45.910Z,80.83
2022-11-05T20:05:18.361Z,80.21
2022-11-05T20:07:52.745Z,81.26
2022-11-05T20:10:21.432Z,79.92
2022-11-05T20:12:49.353Z,79.62
2022-11-05T20:15:19.100Z,80.25
2022-11-05T20:17:50.168Z,80.36
2022-11-05T20:20:18.344Z,80.64
2022-11-05T20:22:47.748Z,81.62
2022-11-05T20:25:16.055Z,82.02
2022-11-05T20:27:43.982Z,80.65
2022-11-05T20:30:12.451Z,80.17
2022-11-05T20:32:40.399Z,80.71
2022-11-05T20:35:09.197Z,81.62
2022-11-05T20:37:37.125Z,81.36
2022-11-05T20:40:07.869Z,81.09
2022-11-05T20:42:37.120Z,81.68
2022-11-05T20:45:05.502Z,80.64
2022-11-05T20:47:33.614Z,80.90
2022-11-05T20:50:01.618Z,81.61
2022-11-05T20:52:29.530Z,80.64
2022-11-05T20:54:57.884Z,81.50
2022-11-05T20:57:27.125Z,81.74
2022-11-05T20:59:55.012Z,81.58
2022-11-05T21:02:23.002Z,81.13
2022-11-05T21:04:51.429Z,80.08
2022-11-05T21:07:19.294Z,79.82
2022-11-05T21:09:47.150Z,80.14
2022-11-05T21:12:18.579Z,80.59
2022-11-05T21:14:47.951Z,80.18
2022-11-05T21:17:15.882Z,80.35
2022-11-05T21:19:43.757Z,81.44
2022-11-05T21:22:15.537Z,81.41
2022-11-05T21:24:44.192Z,80.96
2022-11-05T21:27:12.053Z,81.11
2022-11-05T21:29:39.928Z,81.56
2022-11-05T21:32:09.188Z,82.63
2022-11-05T21:34:37.092Z,82.60
2022-11-05T21:37:05.637Z,82.85
2022-11-05T21:39:34.864Z,81.57
2022-11-05T21:42:03.514Z,81.66
2022-11-05T21:44:31.384Z,81.24
2022-11-05T21:46:59.440Z,81.76
2022-11-05T21:49:28.650Z,81.82
2022-11-05T21:52:14.198Z,81.72
2022-11-05T21:54:59.777Z,81.40
2022-11-05T21:57:45.151Z,81.07
2022-11-05T22:00:15.313Z,80.16
2022-11-05T22:02:43.380Z,82.07
2022-11-05T22:05:13.015Z,82.85
2022-11-05T22:07:41.275Z,82.41
2022-11-05T22:10:16.194Z,80.86
2022-11-05T22:12:45.158Z,79.81
2022-11-05T22:15:13.559Z,81.21
2022-11-05T22:17:46.508Z,81.67
2022-11-05T22:20:16.789Z,80.26
2022-11-05T22:22:44.819Z,81.02
2022-11-05T22:25:14.381Z,82.46
2022-11-05T22:27:43.911Z,82.53
2022-11-05T22:30:13.253Z,82.09
2022-11-05T22:32:41.140Z,82.47
2022-11-05T22:35:09.934Z,82.91
2022-11-05T22:37:39.346Z,82.02
2022-11-05T22:40:08.153Z,83.04
2022-11-05T22:42:36.140Z,82.69
2022-11-05T22:45:04.315Z,82.44
2022-11-05T22:47:32.261Z,82.66
2022-11-05T22:50:00.120Z,83.36
2022-11-05T22:52:28.110Z,82.37
2022-11-05T22:54:57.946Z,83.08
2022-11-05T22:57:25.977Z,83.18
2022-11-05T22:59:53.858Z,82.76
2022-11-05T23:02:21.843Z,81.80
2022-11-05T23:04:51.904Z,82.48
2022-11-05T23:07:37.184Z,82.79
2022-11-05T23:10:24.955Z,82.20
2022-11-05T23:12:53.227Z,82.21
2022-11-05T23:15:35.021Z,81.09
2022-11-05T23:18:20.873Z,81.67
2022-11-05T23:21:06.208Z,80.91
2022-11-05T23:23:51.445Z,80.26
2022-11-05T23:26:37.989Z,79.80
2022-11-05T23:29:05.942Z,79.62
2022-11-05T23:31:51.090Z,79.72
2022-11-05T23:34:18.997Z,79.55
2022-11-05T23:37:04.414Z,79.58
2022-11-05T23:39:32.365Z,79.48
2022-11-05T23:42:19.545Z,80.04
2022-11-05T23:45:04.878Z,82.17
2022-11-05T23:47:50.317Z,81.13
2022-11-05T23:50:18.367Z,80.15
2022-11-05T23:52:46.271Z,79.55
2022-11-05T23:55:14.380Z,81.15
2022-11-05T23:57:43.626Z,80.98
